createdAt,value
2017-11-21T00:02:24.298Z,92.80
2017-11-21T00:04:52.566Z,92.90
2017-11-21T00:07:20.849Z,92.90
2017-11-21T00:09:49.187Z,93.00
2017-11-21T00:12:18.214Z,93.10
2017-11-21T00:14:46.486Z,93.00
2017-11-21T00:17:14.741Z,93.00
2017-11-21T00:19:43.808Z,93.10
2017-11-21T00:22:12.057Z,93.10
2017-11-21T00:24:40.401Z,93.20
2017-11-21T00:27:09.429Z,93.40
2017-11-21T00:29:37.676Z,93.40
2017-11-21T00:32:05.936Z,93.40
2017-11-21T00:34:34.983Z,93.40
2017-11-21T00:37:03.865Z,93.40
2017-11-21T00:39:32.145Z,93.40
2017-11-21T00:42:00.400Z,93.40
2017-11-21T00:44:28.702Z,93.50
2017-11-21T00:46:56.963Z,93.60
2017-11-21T00:49:25.251Z,93.60
2017-11-21T00:51:53.514Z,93.60
2017-11-21T00:54:21.775Z,93.60
2017-11-21T00:56:50.046Z,93.60
2017-11-21T00:59:18.315Z,93.70
2017-11-21T01:01:47.355Z,93.90
2017-11-21T01:04:15.624Z,93.90
2017-11-21T01:06:43.872Z,93.90
2017-11-21T01:09:12.147Z,93.90
2017-11-21T01:11:40.396Z,94.30
2017-11-21T01:14:08.740Z,94.50
2017-11-21T01:16:37.014Z,94.70
2017-11-21T01:19:05.941Z,94.50
2017-11-21T01:21:34.309Z,94.60
2017-11-21T01:24:02.599Z,94.70
2017-11-21T01:26:30.871Z,95.00
2017-11-21T01:28:59.109Z,95.00
2017-11-21T01:31:27.379Z,95.00
2017-11-21T01:33:55.638Z,95.10
2017-11-21T01:36:24.064Z,95.20
2017-11-21T01:38:52.332Z,95.20
2017-11-21T01:41:20.617Z,95.20
2017-11-21T01:43:49.067Z,95.20
2017-11-21T01:46:17.308Z,95.30
2017-11-21T01:48:46.342Z,95.60
2017-11-21T01:51:14.655Z,95.20
2017-11-21T01:53:42.916Z,95.20
2017-11-21T01:56:11.304Z,95.30
2017-11-21T01:58:39.639Z,95.20
2017-11-21T02:01:07.898Z,95.20
2017-11-21T02:03:36.955Z,95.40
2017-11-21T02:06:05.235Z,95.40
2017-11-21T02:08:33.523Z,95.40
2017-11-21T02:11:01.786Z,95.40
2017-11-21T02:13:30.062Z,95.40
2017-11-21T02:15:58.356Z,95.40
2017-11-21T02:18:26.606Z,95.40
2017-11-21T02:20:54.886Z,95.50
2017-11-21T02:23:23.177Z,95.60
2017-11-21T02:25:51.445Z,95.70
2017-11-21T02:28:19.714Z,95.70
2017-11-21T02:30:47.985Z,95.80
2017-11-21T02:33:16.282Z,95.90
2017-11-21T02:35:44.555Z,96.00
2017-11-21T02:38:12.821Z,96.30
2017-11-21T02:40:43.514Z,96.30
2017-11-21T02:43:11.776Z,96.40
2017-11-21T02:45:40.817Z,96.50
2017-11-21T02:48:09.082Z,96.50
2017-11-21T02:50:37.369Z,96.50
2017-11-21T02:53:05.645Z,96.60
2017-11-21T02:55:33.924Z,96.60
2017-11-21T02:58:02.200Z,97.10
2017-11-21T03:00:30.477Z,97.00
2017-11-21T03:02:58.746Z,97.20
2017-11-21T03:05:27.021Z,97.40
2017-11-21T03:07:55.282Z,97.40
2017-11-21T03:10:23.578Z,97.90
2017-11-21T03:12:51.935Z,98.00
2017-11-21T03:15:20.235Z,98.10
2017-11-21T03:17:48.495Z,98.20
2017-11-21T03:20:28.594Z,98.20
2017-11-21T03:23:08.748Z,98.30
2017-11-21T03:25:49.065Z,98.70
2017-11-21T03:28:17.329Z,99.80
2017-11-21T03:30:45.590Z,99.90
2017-11-21T03:33:14.680Z,99.90
2017-11-21T03:35:43.721Z,99.90
2017-11-21T03:38:11.981Z,99.90
2017-11-21T03:40:40.268Z,99.90
2017-11-21T03:43:08.545Z,99.90
2017-11-21T03:45:36.811Z,99.90
2017-11-21T03:48:05.293Z,99.90
2017-11-21T03:50:33.672Z,99.90
2017-11-21T03:53:01.958Z,99.90
2017-11-21T03:55:30.224Z,99.90
2017-11-21T03:57:58.480Z,99.90
2017-11-21T04:00:27.534Z,99.90
2017-11-21T04:02:55.808Z,99.90
2017-11-21T04:05:24.093Z,99.90
2017-11-21T04:07:52.361Z,99.90
2017-11-21T04:10:21.465Z,99.90
2017-11-21T04:12:49.902Z,99.90
2017-11-21T04:15:18.172Z,99.90
2017-11-21T04:17:47.213Z,98.50
2017-11-21T04:20:15.517Z,98.50
2017-11-21T04:22:43.785Z,97.70
2017-11-21T04:25:12.076Z,97.50
2017-11-21T04:27:40.332Z,97.20
2017-11-21T04:30:08.609Z,96.90
2017-11-21T04:32:36.888Z,96.30
2017-11-21T04:35:05.180Z,96.10
2017-11-21T04:37:33.447Z,95.90
2017-11-21T04:40:01.826Z,95.40
2017-11-21T04:42:30.196Z,95.30
2017-11-21T04:44:58.462Z,95.30
2017-11-21T04:47:26.745Z,95.30
2017-11-21T04:49:55.030Z,95.30
2017-11-21T04:52:23.297Z,95.30
2017-11-21T04:54:51.571Z,95.30
2017-11-21T04:57:19.849Z,95.20
2017-11-21T04:59:48.118Z,95.30
2017-11-21T05:02:16.504Z,95.30
2017-11-21T05:04:44.851Z,95.20
2017-11-21T05:07:13.372Z,95.30
2017-11-21T05:09:41.639Z,95.30
2017-11-21T05:12:09.916Z,95.20
2017-11-21T05:14:38.186Z,94.90
2017-11-21T05:17:06.508Z,94.80
2017-11-21T05:19:35.512Z,94.60
2017-11-21T05:22:04.621Z,94.80
2017-11-21T05:24:32.902Z,94.50
2017-11-21T05:27:01.174Z,94.30
2017-11-21T05:29:29.448Z,94.30
2017-11-21T05:31:57.722Z,94.20
2017-11-21T05:34:26.757Z,94.10
2017-11-21T05:36:55.028Z,94.10
2017-11-21T05:39:23.296Z,94.00
2017-11-21T05:41:51.583Z,94.00
2017-11-21T05:44:19.849Z,93.90
2017-11-21T05:46:48.124Z,93.90
2017-11-21T05:49:16.452Z,93.90
2017-11-21T05:51:44.813Z,93.90
2017-11-21T05:54:13.116Z,94.00
2017-11-21T05:56:41.386Z,94.10
2017-11-21T05:59:09.680Z,94.30
2017-11-21T06:01:38.720Z,94.30
2017-11-21T06:04:07.791Z,94.30
2017-11-21T06:06:36.826Z,94.50
2017-11-21T06:09:05.084Z,94.50
2017-11-21T06:11:33.380Z,94.60
2017-11-21T06:14:01.808Z,94.50
2017-11-21T06:16:30.861Z,94.50
2017-11-21T06:18:59.297Z,94.50
2017-11-21T06:21:27.561Z,94.40
2017-11-21T06:23:56.636Z,94.40
2017-11-21T06:26:25.014Z,94.70
2017-11-21T06:28:53.300Z,94.30
2017-11-21T06:31:22.353Z,94.50
2017-11-21T06:33:50.668Z,94.50
2017-11-21T06:36:19.035Z,94.50
2017-11-21T06:38:47.284Z,94.60
2017-11-21T06:41:16.616Z,94.60
2017-11-21T06:43:44.879Z,94.70
2017-11-21T06:46:13.152Z,94.70
2017-11-21T06:48:41.432Z,95.00
2017-11-21T06:51:09.708Z,94.80
2017-11-21T06:53:38.085Z,94.80
2017-11-21T06:56:06.376Z,94.90
2017-11-21T06:58:34.654Z,94.90
2017-11-21T07:01:02.922Z,94.90
2017-11-21T07:03:31.176Z,95.00
2017-11-21T07:05:59.624Z,95.20
2017-11-21T07:08:28.654Z,95.30
2017-11-21T07:10:56.908Z,95.30
2017-11-21T07:13:25.198Z,95.40
2017-11-21T07:15:53.465Z,95.50
2017-11-21T07:18:21.877Z,95.70
2017-11-21T07:20:50.143Z,95.90
2017-11-21T07:23:18.482Z,96.20
2017-11-21T07:25:47.734Z,96.20
2017-11-21T07:28:16.013Z,96.20
2017-11-21T07:30:44.288Z,96.20
2017-11-21T07:33:12.566Z,96.30
2017-11-21T07:35:40.866Z,96.20
2017-11-21T07:38:09.412Z,95.90
2017-11-21T07:40:37.739Z,95.90
2017-11-21T07:43:06.783Z,95.80
2017-11-21T07:45:35.050Z,95.80
2017-11-21T07:48:03.450Z,95.70
2017-11-21T07:50:31.713Z,95.60
2017-11-21T07:52:59.965Z,95.30
2017-11-21T07:55:29.803Z,95.30
2017-11-21T07:57:58.069Z,95.10
2017-11-21T08:00:26.351Z,95.20
2017-11-21T08:02:54.695Z,95.20
2017-11-21T08:05:23.707Z,95.20
2017-11-21T08:07:51.998Z,95.20
2017-11-21T08:10:20.260Z,95.30
2017-11-21T08:12:48.536Z,95.20
2017-11-21T08:15:16.796Z,95.10
2017-11-21T08:17:45.819Z,95.40
2017-11-21T08:20:14.085Z,95.40
2017-11-21T08:22:44.501Z,95.20
2017-11-21T08:25:12.817Z,94.60
2017-11-21T08:27:41.078Z,94.50
2017-11-21T08:30:09.338Z,94.50
2017-11-21T08:32:39.425Z,94.30
2017-11-21T08:35:07.678Z,94.10
2017-11-21T08:37:36.333Z,94.20
2017-11-21T08:40:04.630Z,94.10
2017-11-21T08:42:32.947Z,94.20
2017-11-21T08:45:01.301Z,94.10
2017-11-21T08:47:29.561Z,94.00
2017-11-21T08:49:57.855Z,93.90
2017-11-21T08:52:26.141Z,93.90
2017-11-21T08:54:54.424Z,94.00
2017-11-21T08:57:22.700Z,94.00
2017-11-21T08:59:51.013Z,93.80
2017-11-21T09:02:19.332Z,94.20
2017-11-21T09:04:47.640Z,94.40
2017-11-21T09:07:15.908Z,94.50
2017-11-21T09:09:44.177Z,94.60
2017-11-21T09:12:12.431Z,95.70
2017-11-21T09:14:40.692Z,94.90
2017-11-21T09:17:08.968Z,94.60
2017-11-21T09:19:37.269Z,94.60
2017-11-21T09:22:05.544Z,94.50
2017-11-21T09:24:33.810Z,94.40
2017-11-21T09:27:02.113Z,94.60
2017-11-21T09:29:30.373Z,94.70
2017-11-21T09:31:58.700Z,94.80
2017-11-21T09:34:27.037Z,94.80
2017-11-21T09:36:55.309Z,94.80
2017-11-21T09:39:23.577Z,95.00
2017-11-21T09:41:51.862Z,95.10
2017-11-21T09:44:20.149Z,95.20
2017-11-21T09:46:48.584Z,95.20
2017-11-21T09:49:16.921Z,95.20
2017-11-21T09:51:46.001Z,95.20
2017-11-21T09:54:14.273Z,95.20
2017-11-21T09:56:42.566Z,95.20
2017-11-21T09:59:10.936Z,95.20
2017-11-21T10:01:39.225Z,95.30
2017-11-21T10:04:08.276Z,95.20
2017-11-21T10:06:36.528Z,95.20
2017-11-21T10:09:04.813Z,95.10
2017-11-21T10:11:33.073Z,95.10
2017-11-21T10:14:02.125Z,94.60
2017-11-21T10:16:30.414Z,94.60
2017-11-21T10:19:00.200Z,94.40
2017-11-21T10:21:28.670Z,94.40
2017-11-21T10:23:56.933Z,94.10
2017-11-21T10:26:25.435Z,93.80
2017-11-21T10:28:53.706Z,93.70
2017-11-21T10:31:21.986Z,93.50
2017-11-21T10:33:50.260Z,93.50
2017-11-21T10:36:18.538Z,93.30
2017-11-21T10:38:46.833Z,92.50
2017-11-21T10:41:15.174Z,92.60
2017-11-21T10:43:43.534Z,92.50
2017-11-21T10:46:12.590Z,92.10
2017-11-21T10:48:41.391Z,92.10
2017-11-21T10:51:09.759Z,91.90
2017-11-21T10:53:38.028Z,91.80
2017-11-21T10:56:06.302Z,92.00
2017-11-21T10:58:34.582Z,92.20
2017-11-21T11:01:02.919Z,92.40
2017-11-21T11:03:31.952Z,92.40
2017-11-21T11:06:00.226Z,92.30
2017-11-21T11:08:28.488Z,92.30
2017-11-21T11:10:56.783Z,92.40
2017-11-21T11:13:25.056Z,92.30
2017-11-21T11:15:53.457Z,92.40
2017-11-21T11:18:22.748Z,92.50
2017-11-21T11:20:51.114Z,92.70
2017-11-21T11:23:20.186Z,92.90
2017-11-21T11:25:48.461Z,92.90
2017-11-21T11:28:16.737Z,92.90
2017-11-21T11:30:45.022Z,93.10
2017-11-21T11:33:13.301Z,93.20
2017-11-21T11:35:41.725Z,93.30
2017-11-21T11:38:10.007Z,93.20
2017-11-21T11:40:38.302Z,93.20
2017-11-21T11:43:08.145Z,93.50
2017-11-21T11:45:36.462Z,93.50
2017-11-21T11:48:04.734Z,93.50
2017-11-21T11:50:33.018Z,93.50
2017-11-21T11:53:01.297Z,93.60
2017-11-21T11:55:29.572Z,93.40
2017-11-21T11:57:57.898Z,93.40
2017-11-21T12:00:26.926Z,93.60
2017-11-21T12:02:55.195Z,93.50
2017-11-21T12:05:23.459Z,93.80
2017-11-21T12:07:51.725Z,93.80
2017-11-21T12:10:20.053Z,93.80
2017-11-21T12:12:48.432Z,94.40
2017-11-21T12:15:16.696Z,94.30
2017-11-21T12:17:44.987Z,94.30
2017-11-21T12:20:13.252Z,94.40
2017-11-21T12:22:43.528Z,94.60
2017-11-21T12:25:11.811Z,94.80
2017-11-21T12:27:40.121Z,94.80
2017-11-21T12:30:08.388Z,94.80
2017-11-21T12:32:36.662Z,94.80
2017-11-21T12:35:04.975Z,94.80
2017-11-21T12:37:33.734Z,94.80
2017-11-21T12:40:02.009Z,94.80
2017-11-21T12:42:30.304Z,94.80
2017-11-21T12:44:58.590Z,94.90
2017-11-21T12:47:26.977Z,95.00
2017-11-21T12:49:55.233Z,95.20
2017-11-21T12:52:23.528Z,95.10
2017-11-21T12:54:52.619Z,95.10
2017-11-21T12:57:20.892Z,95.10
2017-11-21T12:59:49.276Z,95.10
2017-11-21T13:02:17.540Z,95.00
2017-11-21T13:04:45.842Z,95.00
2017-11-21T13:07:14.118Z,94.80
2017-11-21T13:09:42.394Z,94.80
2017-11-21T13:12:11.604Z,94.90
2017-11-21T13:14:39.879Z,94.90
2017-11-21T13:17:08.933Z,95.00
2017-11-21T13:19:37.287Z,95.00
2017-11-21T13:22:05.579Z,95.00
2017-11-21T13:24:33.852Z,95.10
2017-11-21T13:27:02.129Z,95.20
2017-11-21T13:29:30.434Z,95.20
2017-11-21T13:31:58.755Z,95.10
2017-11-21T13:34:27.801Z,95.20
2017-11-21T13:36:56.089Z,95.10
2017-11-21T13:39:24.375Z,95.10
2017-11-21T13:41:52.652Z,95.10
2017-11-21T13:44:21.029Z,95.10
2017-11-21T13:46:49.478Z,95.10
2017-11-21T13:49:17.937Z,95.10
2017-11-21T13:51:47.306Z,95.00
2017-11-21T13:54:16.973Z,95.00
2017-11-21T13:56:45.262Z,95.00
2017-11-21T13:59:13.559Z,94.80
2017-11-21T14:01:41.830Z,94.70
2017-11-21T14:04:10.102Z,94.70
2017-11-21T14:06:38.419Z,94.80
2017-11-21T14:09:07.450Z,95.10
2017-11-21T14:11:35.722Z,94.70
2017-11-21T14:14:04.005Z,94.60
2017-11-21T14:16:32.282Z,94.50
2017-11-21T14:19:00.601Z,94.60
2017-11-21T14:21:28.893Z,94.40
2017-11-21T14:23:57.971Z,94.40
2017-11-21T14:26:26.244Z,94.40
2017-11-21T14:28:54.521Z,94.60
2017-11-21T14:31:22.819Z,94.60
2017-11-21T14:33:51.854Z,94.80
2017-11-21T14:36:20.166Z,94.80
2017-11-21T14:38:48.429Z,94.80
2017-11-21T14:41:17.333Z,94.90
2017-11-21T14:43:45.625Z,95.00
2017-11-21T14:46:13.900Z,95.10
2017-11-21T14:48:42.198Z,95.20
2017-11-21T14:51:11.254Z,95.20
2017-11-21T14:53:40.360Z,95.20
2017-11-21T14:56:08.631Z,95.10
2017-11-21T14:58:36.929Z,95.00
2017-11-21T15:01:05.998Z,95.20
2017-11-21T15:03:34.260Z,95.20
2017-11-21T15:06:02.550Z,95.30
2017-11-21T15:08:30.833Z,95.40
2017-11-21T15:10:59.122Z,95.80
2017-11-21T15:13:27.409Z,95.50
2017-11-21T15:15:58.034Z,95.60
2017-11-21T15:18:26.421Z,95.50
2017-11-21T15:20:54.693Z,95.50
2017-11-21T15:23:23.066Z,95.70
2017-11-21T15:25:51.335Z,95.60
2017-11-21T15:28:19.626Z,95.70
2017-11-21T15:30:47.902Z,95.70
2017-11-21T15:33:16.182Z,95.70
2017-11-21T15:35:44.447Z,95.80
2017-11-21T15:38:13.505Z,95.80
2017-11-21T15:40:41.820Z,95.80
2017-11-21T15:43:10.242Z,95.80
2017-11-21T15:45:39.262Z,96.00
2017-11-21T15:48:07.543Z,96.00
2017-11-21T15:50:35.826Z,96.00
2017-11-21T15:53:04.153Z,96.00
2017-11-21T15:55:33.257Z,96.00
2017-11-21T15:58:01.534Z,96.00
2017-11-21T16:00:30.575Z,96.10
2017-11-21T16:02:59.637Z,96.10
2017-11-21T16:05:28.693Z,96.30
2017-11-21T16:07:57.026Z,96.30
2017-11-21T16:10:26.061Z,96.30
2017-11-21T16:12:54.371Z,96.30
2017-11-21T16:15:23.254Z,96.30
2017-11-21T16:17:52.485Z,96.40
2017-11-21T16:20:20.835Z,96.40
2017-11-21T16:22:49.860Z,96.60
2017-11-21T16:25:18.139Z,96.60
2017-11-21T16:27:49.575Z,96.60
2017-11-21T16:30:17.882Z,96.80
2017-11-21T16:32:46.261Z,96.70
2017-11-21T16:35:14.542Z,96.70
2017-11-21T16:37:43.070Z,96.70
2017-11-21T16:40:11.438Z,96.70
2017-11-21T16:42:39.723Z,96.80
2017-11-21T16:45:07.997Z,96.80
2017-11-21T16:47:37.208Z,96.80
2017-11-21T16:50:06.281Z,96.80
2017-11-21T16:52:34.591Z,96.80
2017-11-21T16:55:02.860Z,96.80
2017-11-21T16:57:31.910Z,96.80
2017-11-21T17:00:00.171Z,96.80
2017-11-21T17:02:28.444Z,96.80
2017-11-21T17:04:56.757Z,96.80
2017-11-21T17:07:25.024Z,96.90
2017-11-21T17:09:53.312Z,97.00
2017-11-21T17:12:21.581Z,97.20
2017-11-21T17:14:49.911Z,97.20
2017-11-21T17:17:18.926Z,97.30
2017-11-21T17:19:47.434Z,97.30
2017-11-21T17:22:15.736Z,97.30
2017-11-21T17:24:43.975Z,97.20
2017-11-21T17:27:12.275Z,97.10
2017-11-21T17:29:40.543Z,97.20
2017-11-21T17:32:08.814Z,97.20
2017-11-21T17:34:37.102Z,97.20
2017-11-21T17:37:05.353Z,97.00
2017-11-21T17:39:33.660Z,97.00
2017-11-21T17:42:02.670Z,96.90
2017-11-21T17:44:31.697Z,96.80
2017-11-21T17:47:00.030Z,96.70
2017-11-21T17:49:28.317Z,96.70
2017-11-21T17:51:57.367Z,96.40
2017-11-21T17:54:25.639Z,96.40
2017-11-21T17:56:53.941Z,96.30
2017-11-21T17:59:22.234Z,96.20
2017-11-21T18:01:51.186Z,96.00
2017-11-21T18:04:19.588Z,95.90
2017-11-21T18:06:47.909Z,95.20
2017-11-21T18:09:16.209Z,95.10
2017-11-21T18:11:44.468Z,94.70
2017-11-21T18:14:12.743Z,94.50
2017-11-21T18:16:41.428Z,94.30
2017-11-21T18:19:10.453Z,94.20
2017-11-21T18:21:38.742Z,94.10
2017-11-21T18:24:07.001Z,93.90
2017-11-21T18:26:35.285Z,93.80
2017-11-21T18:29:03.562Z,93.40
2017-11-21T18:31:31.845Z,93.30
2017-11-21T18:34:00.153Z,93.10
2017-11-21T18:36:28.433Z,93.10
2017-11-21T18:38:56.696Z,93.00
2017-11-21T18:41:26.024Z,92.90
2017-11-21T18:43:54.323Z,93.00
2017-11-21T18:58:07.720Z,75.40
2017-11-21T19:00:36.219Z,72.20
2017-11-21T19:03:05.655Z,70.00
2017-11-21T19:05:34.354Z,68.50
2017-11-21T19:08:02.701Z,67.40
2017-11-21T19:10:31.968Z,64.30
2017-11-21T19:16:07.621Z,63.20
2017-11-21T19:18:35.961Z,62.60
2017-11-21T19:21:04.372Z,62.00
2017-11-21T19:23:32.784Z,61.60
2017-11-21T19:26:01.119Z,61.30
2017-11-21T19:28:30.458Z,60.90
2017-11-21T19:34:55.464Z,60.10
2017-11-21T19:37:23.794Z,60.00
2017-11-21T19:39:52.999Z,61.30
2017-11-21T19:42:22.128Z,62.20
2017-11-21T19:44:50.590Z,62.10
2017-11-21T19:47:19.050Z,62.00
2017-11-21T19:51:31.916Z,54.30
2017-11-21T19:54:00.280Z,57.90
2017-11-21T19:56:28.718Z,67.00
2017-11-21T19:58:57.891Z,81.60
2017-11-21T20:01:26.299Z,81.60
2017-11-21T20:03:54.790Z,85.10
2017-11-21T20:06:23.208Z,87.50
2017-11-21T20:08:51.571Z,90.20
2017-11-21T20:11:19.932Z,90.50
2017-11-21T20:13:49.116Z,91.30
2017-11-21T20:16:17.470Z,91.30
2017-11-21T20:18:45.840Z,91.60
2017-11-21T20:21:14.189Z,91.70
2017-11-21T20:23:42.547Z,91.60
2017-11-21T20:26:11.700Z,91.60
2017-11-21T20:28:40.055Z,91.60
2017-11-21T20:31:09.745Z,91.70
2017-11-21T20:33:38.160Z,91.90
2017-11-21T20:36:06.520Z,92.00
2017-11-21T20:38:34.862Z,92.10
2017-11-21T20:41:03.993Z,92.30
2017-11-21T20:43:32.381Z,92.30
2017-11-21T20:46:00.837Z,92.40
2017-11-21T20:48:29.984Z,92.80
2017-11-21T20:50:58.389Z,92.80
2017-11-21T20:53:26.852Z,92.80
2017-11-21T20:55:55.235Z,93.00
2017-11-21T20:58:23.931Z,93.00
2017-11-21T21:00:52.520Z,93.10
2017-11-21T21:03:21.727Z,93.10
2017-11-21T21:05:50.129Z,93.10
2017-11-21T21:08:18.528Z,93.20
2017-11-21T21:10:46.946Z,93.10
2017-11-21T21:13:17.023Z,92.60
2017-11-21T21:15:45.420Z,92.60
2017-11-21T21:18:14.116Z,92.50
2017-11-21T21:20:42.503Z,92.40
2017-11-21T21:23:11.079Z,92.30
2017-11-21T21:25:40.471Z,92.30
2017-11-21T21:28:08.852Z,92.30
2017-11-21T21:30:37.319Z,92.10
2017-11-21T21:33:05.714Z,92.00
2017-11-21T21:35:34.085Z,91.80
2017-11-21T21:38:02.450Z,91.60
2017-11-21T21:40:30.825Z,91.60
2017-11-21T21:42:59.173Z,91.30
2017-11-21T21:45:28.297Z,91.30
2017-11-21T21:47:56.766Z,91.30
2017-11-21T21:50:25.878Z,91.00
2017-11-21T21:52:54.259Z,91.00
2017-11-21T21:55:23.566Z,90.80
2017-11-21T21:57:51.917Z,90.80
2017-11-21T22:00:21.058Z,90.40
2017-11-21T22:02:49.417Z,90.40
2017-11-21T22:05:17.793Z,90.30
2017-11-21T22:07:46.148Z,90.20
2017-11-21T22:10:15.283Z,90.20
2017-11-21T22:12:43.645Z,90.20
2017-11-21T22:15:11.986Z,90.00
2017-11-21T22:17:40.361Z,90.10
2017-11-21T22:20:08.730Z,90.10
2017-11-21T22:22:37.195Z,90.00
2017-11-21T22:25:06.485Z,90.00
2017-11-21T22:27:34.841Z,90.00
2017-11-21T22:30:03.204Z,89.90
2017-11-21T22:32:32.352Z,90.10
2017-11-21T22:35:00.707Z,90.10
2017-11-21T22:37:29.087Z,89.70
2017-11-21T22:39:57.445Z,89.20
2017-11-21T22:42:25.866Z,89.40
2017-11-21T22:44:54.219Z,89.60
2017-11-21T22:47:22.596Z,89.60
2017-11-21T22:49:50.949Z,89.20
2017-11-21T22:52:20.062Z,89.30
2017-11-21T22:54:48.446Z,89.20
2017-11-21T22:57:16.793Z,89.50
2017-11-21T22:59:45.149Z,89.50
2017-11-21T23:02:13.513Z,89.50
2017-11-21T23:04:41.871Z,89.70
2017-11-21T23:07:10.229Z,89.70
2017-11-21T23:09:39.441Z,90.00
2017-11-21T23:12:07.870Z,90.00
2017-11-21T23:14:36.237Z,90.10
2017-11-21T23:17:04.576Z,90.20
2017-11-21T23:19:32.972Z,90.40
2017-11-21T23:22:01.346Z,90.20
2017-11-21T23:24:29.706Z,90.30
2017-11-21T23:26:58.058Z,90.30
2017-11-21T23:29:26.429Z,90.40
2017-11-21T23:31:54.828Z,90.40
2017-11-21T23:34:23.172Z,90.60
2017-11-21T23:36:51.544Z,90.30
2017-11-21T23:39:19.912Z,90.30
2017-11-21T23:41:48.258Z,90.10
2017-11-21T23:44:17.108Z,90.20
2017-11-21T23:46:45.462Z,90.20
2017-11-21T23:49:13.805Z,90.20
2017-11-21T23:51:43.031Z,90.00
2017-11-21T23:54:11.372Z,90.00
2017-11-21T23:56:40.509Z,89.00
2017-11-21T23:59:08.863Z,89.00
